sensor_id;sensor_type;location;lat;lon;timestamp;temperature;humidity
38209;DHT22;24016;52.102;11.584;2022-08-03T00:01:20;19.40;99.90
38209;DHT22;24016;52.102;11.584;2022-08-03T00:03:46;19.50;99.90
38209;DHT22;24016;52.102;11.584;2022-08-03T00:06:11;19.40;99.90
38209;DHT22;24016;52.102;11.584;2022-08-03T00:08:37;19.40;99.90
38209;DHT22;24016;52.102;11.584;2022-08-03T00:11:02;19.40;99.90
38209;DHT22;24016;52.102;11.584;2022-08-03T00:13:28;19.40;99.90
38209;DHT22;24016;52.102;11.584;2022-08-03T00:15:54;19.40;99.90
38209;DHT22;24016;52.102;11.584;2022-08-03T00:18:20;19.40;99.90
38209;DHT22;24016;52.102;11.584;2022-08-03T00:20:45;19.40;99.90
38209;DHT22;24016;52.102;11.584;2022-08-03T00:23:11;19.40;99.90
38209;DHT22;24016;52.102;11.584;2022-08-03T00:25:37;19.40;99.90
38209;DHT22;24016;52.102;11.584;2022-08-03T00:28:04;19.40;99.90
38209;DHT22;24016;52.102;11.584;2022-08-03T00:30:30;19.30;99.90
38209;DHT22;24016;52.102;11.584;2022-08-03T00:32:56;19.30;99.90
38209;DHT22;24016;52.102;11.584;2022-08-03T00:35:22;19.30;99.90
38209;DHT22;24016;52.102;11.584;2022-08-03T00:37:48;19.30;99.90
38209;DHT22;24016;52.102;11.584;2022-08-03T00:40:14;19.30;99.90
38209;DHT22;24016;52.102;11.584;2022-08-03T00:42:51;19.30;99.90
38209;DHT22;24016;52.102;11.584;2022-08-03T00:45:19;19.30;99.90
38209;DHT22;24016;52.102;11.584;2022-08-03T00:47:45;19.40;99.90
38209;DHT22;24016;52.102;11.584;2022-08-03T00:50:11;19.40;99.90
38209;DHT22;24016;52.102;11.584;2022-08-03T00:52:36;19.40;99.90
38209;DHT22;24016;52.102;11.584;2022-08-03T00:55:03;19.40;99.90
38209;DHT22;24016;52.102;11.584;2022-08-03T00:57:29;19.40;99.90
38209;DHT22;24016;52.102;11.584;2022-08-03T00:59:56;19.40;99.90
38209;DHT22;24016;52.102;11.584;2022-08-03T01:02:21;19.40;99.90
38209;DHT22;24016;52.102;11.584;2022-08-03T01:04:47;19.40;99.90
38209;DHT22;24016;52.102;11.584;2022-08-03T01:10:16;19.40;99.90
38209;DHT22;24016;52.102;11.584;2022-08-03T01:18:40;19.30;99.90
38209;DHT22;24016;52.102;11.584;2022-08-03T01:21:14;19.20;99.90
38209;DHT22;24016;52.102;11.584;2022-08-03T01:23:51;19.20;99.90
38209;DHT22;24016;52.102;11.584;2022-08-03T01:26:47;19.10;99.90
38209;DHT22;24016;52.102;11.584;2022-08-03T01:32:11;19.00;99.90
38209;DHT22;24016;52.102;11.584;2022-08-03T01:34:44;18.90;99.90
38209;DHT22;24016;52.102;11.584;2022-08-03T01:37:11;18.80;99.90
38209;DHT22;24016;52.102;11.584;2022-08-03T01:39:40;18.80;99.90
38209;DHT22;24016;52.102;11.584;2022-08-03T01:42:07;18.70;99.90
38209;DHT22;24016;52.102;11.584;2022-08-03T01:44:38;18.60;99.90
38209;DHT22;24016;52.102;11.584;2022-08-03T01:47:05;18.50;99.90
38209;DHT22;24016;52.102;11.584;2022-08-03T01:49:36;18.40;99.90
38209;DHT22;24016;52.102;11.584;2022-08-03T01:52:03;18.30;99.90
38209;DHT22;24016;52.102;11.584;2022-08-03T01:54:29;18.30;99.90
38209;DHT22;24016;52.102;11.584;2022-08-03T01:56:56;18.30;99.90
38209;DHT22;24016;52.102;11.584;2022-08-03T01:59:24;18.20;99.90
38209;DHT22;24016;52.102;11.584;2022-08-03T02:01:51;18.20;99.90
38209;DHT22;24016;52.102;11.584;2022-08-03T02:04:18;18.10;99.90
38209;DHT22;24016;52.102;11.584;2022-08-03T02:06:45;18.20;99.90
38209;DHT22;24016;52.102;11.584;2022-08-03T02:09:12;18.20;99.90
38209;DHT22;24016;52.102;11.584;2022-08-03T02:11:39;18.20;99.90
38209;DHT22;24016;52.102;11.584;2022-08-03T02:14:07;18.20;99.90
38209;DHT22;24016;52.102;11.584;2022-08-03T02:16:34;18.30;99.90
38209;DHT22;24016;52.102;11.584;2022-08-03T02:19:03;18.20;99.90
38209;DHT22;24016;52.102;11.584;2022-08-03T02:21:29;18.20;99.90
38209;DHT22;24016;52.102;11.584;2022-08-03T02:23:56;18.20;99.90
38209;DHT22;24016;52.102;11.584;2022-08-03T02:26:23;18.20;99.90
38209;DHT22;24016;52.102;11.584;2022-08-03T02:28:54;18.20;99.90
38209;DHT22;24016;52.102;11.584;2022-08-03T02:31:23;18.20;99.90
38209;DHT22;24016;52.102;11.584;2022-08-03T02:33:53;18.10;99.90
38209;DHT22;24016;52.102;11.584;2022-08-03T02:36:24;18.00;99.90
38209;DHT22;24016;52.102;11.584;2022-08-03T02:38:53;18.00;99.90
38209;DHT22;24016;52.102;11.584;2022-08-03T02:41:22;17.90;99.90
38209;DHT22;24016;52.102;11.584;2022-08-03T02:43:50;17.80;99.90
38209;DHT22;24016;52.102;11.584;2022-08-03T02:46:19;17.80;99.90
38209;DHT22;24016;52.102;11.584;2022-08-03T02:48:47;17.80;99.90
38209;DHT22;24016;52.102;11.584;2022-08-03T02:51:15;17.70;99.90
38209;DHT22;24016;52.102;11.584;2022-08-03T02:53:42;17.60;99.90
38209;DHT22;24016;52.102;11.584;2022-08-03T02:56:10;17.60;99.90
38209;DHT22;24016;52.102;11.584;2022-08-03T02:58:36;17.50;99.90
38209;DHT22;24016;52.102;11.584;2022-08-03T03:01:02;17.50;99.90
38209;DHT22;24016;52.102;11.584;2022-08-03T03:03:28;17.40;99.90
38209;DHT22;24016;52.102;11.584;2022-08-03T03:05:54;17.30;99.90
38209;DHT22;24016;52.102;11.584;2022-08-03T03:08:21;17.20;99.90
38209;DHT22;24016;52.102;11.584;2022-08-03T03:10:47;17.30;99.90
38209;DHT22;24016;52.102;11.584;2022-08-03T03:13:14;17.30;99.90
38209;DHT22;24016;52.102;11.584;2022-08-03T03:15:43;17.20;99.90
38209;DHT22;24016;52.102;11.584;2022-08-03T03:18:09;17.20;99.90
38209;DHT22;24016;52.102;11.584;2022-08-03T03:20:37;17.20;99.90
38209;DHT22;24016;52.102;11.584;2022-08-03T03:23:04;17.10;99.90
38209;DHT22;24016;52.102;11.584;2022-08-03T03:25:31;17.10;99.90
38209;DHT22;24016;52.102;11.584;2022-08-03T03:27:58;17.20;99.90
38209;DHT22;24016;52.102;11.584;2022-08-03T03:30:24;17.20;99.90
38209;DHT22;24016;52.102;11.584;2022-08-03T03:32:50;17.20;99.90
38209;DHT22;24016;52.102;11.584;2022-08-03T03:35:16;17.20;99.90
38209;DHT22;24016;52.102;11.584;2022-08-03T03:37:41;17.20;99.90
38209;DHT22;24016;52.102;11.584;2022-08-03T03:40:07;17.20;99.90
38209;DHT22;24016;52.102;11.584;2022-08-03T03:42:33;17.20;99.90
38209;DHT22;24016;52.102;11.584;2022-08-03T03:45:03;17.10;99.90
38209;DHT22;24016;52.102;11.584;2022-08-03T03:47:29;17.10;99.90
38209;DHT22;24016;52.102;11.584;2022-08-03T03:49:56;17.10;99.90
38209;DHT22;24016;52.102;11.584;2022-08-03T03:52:22;17.10;99.90
38209;DHT22;24016;52.102;11.584;2022-08-03T03:54:47;17.10;99.90
38209;DHT22;24016;52.102;11.584;2022-08-03T03:57:13;17.10;99.90
38209;DHT22;24016;52.102;11.584;2022-08-03T03:59:41;17.00;99.90
38209;DHT22;24016;52.102;11.584;2022-08-03T04:02:09;17.10;99.90
38209;DHT22;24016;52.102;11.584;2022-08-03T04:04:35;17.10;99.90
38209;DHT22;24016;52.102;11.584;2022-08-03T04:07:20;17.10;99.90
38209;DHT22;24016;52.102;11.584;2022-08-03T04:10:15;17.10;99.90
38209;DHT22;24016;52.102;11.584;2022-08-03T04:13:02;17.00;99.90
38209;DHT22;24016;52.102;11.584;2022-08-03T04:15:32;17.00;99.90
38209;DHT22;24016;52.102;11.584;2022-08-03T04:17:58;17.00;99.90
38209;DHT22;24016;52.102;11.584;2022-08-03T04:20:27;17.00;99.90
38209;DHT22;24016;52.102;11.584;2022-08-03T04:22:55;17.00;99.90
38209;DHT22;24016;52.102;11.584;2022-08-03T04:25:26;16.90;99.90
38209;DHT22;24016;52.102;11.584;2022-08-03T04:27:54;17.00;99.90
38209;DHT22;24016;52.102;11.584;2022-08-03T04:30:23;17.00;99.90
38209;DHT22;24016;52.102;11.584;2022-08-03T04:32:50;17.00;99.90
38209;DHT22;24016;52.102;11.584;2022-08-03T04:35:17;17.10;99.90
38209;DHT22;24016;52.102;11.584;2022-08-03T04:37:46;17.10;99.90
38209;DHT22;24016;52.102;11.584;2022-08-03T04:40:19;17.10;99.90
38209;DHT22;24016;52.102;11.584;2022-08-03T04:42:46;17.10;99.90
38209;DHT22;24016;52.102;11.584;2022-08-03T04:45:14;17.20;99.90
38209;DHT22;24016;52.102;11.584;2022-08-03T04:47:40;17.20;99.90
38209;DHT22;24016;52.102;11.584;2022-08-03T04:50:06;17.20;99.90
38209;DHT22;24016;52.102;11.584;2022-08-03T04:52:33;17.30;99.90
38209;DHT22;24016;52.102;11.584;2022-08-03T04:54:59;17.30;99.90
38209;DHT22;24016;52.102;11.584;2022-08-03T04:57:25;17.30;99.90
38209;DHT22;24016;52.102;11.584;2022-08-03T04:59:52;17.40;99.90
38209;DHT22;24016;52.102;11.584;2022-08-03T05:02:21;17.50;99.90
38209;DHT22;24016;52.102;11.584;2022-08-03T05:04:47;17.50;99.90
38209;DHT22;24016;52.102;11.584;2022-08-03T05:07:13;17.60;99.90
38209;DHT22;24016;52.102;11.584;2022-08-03T05:09:40;17.70;99.90
38209;DHT22;24016;52.102;11.584;2022-08-03T05:12:06;17.70;99.90
38209;DHT22;24016;52.102;11.584;2022-08-03T05:14:32;17.80;99.90
38209;DHT22;24016;52.102;11.584;2022-08-03T05:16:59;17.80;99.90
38209;DHT22;24016;52.102;11.584;2022-08-03T05:19:24;17.90;99.90
38209;DHT22;24016;52.102;11.584;2022-08-03T05:21:50;17.90;99.90
38209;DHT22;24016;52.102;11.584;2022-08-03T05:24:16;18.00;99.90
38209;DHT22;24016;52.102;11.584;2022-08-03T05:26:41;18.10;99.90
38209;DHT22;24016;52.102;11.584;2022-08-03T05:29:07;18.30;99.90
38209;DHT22;24016;52.102;11.584;2022-08-03T05:31:33;18.40;99.90
38209;DHT22;24016;52.102;11.584;2022-08-03T05:33:58;18.50;99.90
38209;DHT22;24016;52.102;11.584;2022-08-03T05:36:24;18.50;99.90
38209;DHT22;24016;52.102;11.584;2022-08-03T05:38:49;18.70;99.90
38209;DHT22;24016;52.102;11.584;2022-08-03T05:41:14;18.70;99.90
38209;DHT22;24016;52.102;11.584;2022-08-03T05:43:40;18.80;99.90
38209;DHT22;24016;52.102;11.584;2022-08-03T05:46:06;19.00;99.90
38209;DHT22;24016;52.102;11.584;2022-08-03T05:48:31;19.10;99.90
38209;DHT22;24016;52.102;11.584;2022-08-03T05:50:57;19.30;99.90
38209;DHT22;24016;52.102;11.584;2022-08-03T05:53:22;19.50;99.90
38209;DHT22;24016;52.102;11.584;2022-08-03T05:55:48;19.70;99.90
38209;DHT22;24016;52.102;11.584;2022-08-03T05:58:13;20.00;99.90
38209;DHT22;24016;52.102;11.584;2022-08-03T06:00:39;20.30;99.90
38209;DHT22;24016;52.102;11.584;2022-08-03T06:03:04;20.50;99.90
38209;DHT22;24016;52.102;11.584;2022-08-03T06:05:30;20.70;99.90
38209;DHT22;24016;52.102;11.584;2022-08-03T06:07:56;20.90;99.90
38209;DHT22;24016;52.102;11.584;2022-08-03T06:10:22;21.20;99.90
38209;DHT22;24016;52.102;11.584;2022-08-03T06:12:48;21.30;99.90
38209;DHT22;24016;52.102;11.584;2022-08-03T06:15:15;21.50;99.90
38209;DHT22;24016;52.102;11.584;2022-08-03T06:17:45;21.70;99.90
38209;DHT22;24016;52.102;11.584;2022-08-03T06:20:11;22.00;99.90
38209;DHT22;24016;52.102;11.584;2022-08-03T06:22:36;22.10;99.90
38209;DHT22;24016;52.102;11.584;2022-08-03T06:25:02;22.40;99.90
38209;DHT22;24016;52.102;11.584;2022-08-03T06:27:27;22.60;99.90
38209;DHT22;24016;52.102;11.584;2022-08-03T06:29:53;22.70;99.90
38209;DHT22;24016;52.102;11.584;2022-08-03T06:32:18;22.80;99.90
38209;DHT22;24016;52.102;11.584;2022-08-03T06:34:47;22.90;99.90
38209;DHT22;24016;52.102;11.584;2022-08-03T06:37:13;23.00;99.90
38209;DHT22;24016;52.102;11.584;2022-08-03T06:39:38;23.20;99.90
38209;DHT22;24016;52.102;11.584;2022-08-03T06:42:04;23.30;99.90
38209;DHT22;24016;52.102;11.584;2022-08-03T06:44:29;23.40;99.90
38209;DHT22;24016;52.102;11.584;2022-08-03T06:46:55;23.50;99.90
38209;DHT22;24016;52.102;11.584;2022-08-03T06:49:21;23.70;99.90
38209;DHT22;24016;52.102;11.584;2022-08-03T06:51:46;23.90;99.90
38209;DHT22;24016;52.102;11.584;2022-08-03T06:54:12;24.10;99.90
38209;DHT22;24016;52.102;11.584;2022-08-03T06:56:38;24.30;99.90
38209;DHT22;24016;52.102;11.584;2022-08-03T06:59:03;24.50;99.90
38209;DHT22;24016;52.102;11.584;2022-08-03T07:01:29;24.70;99.90
38209;DHT22;24016;52.102;11.584;2022-08-03T07:03:54;24.90;99.90
38209;DHT22;24016;52.102;11.584;2022-08-03T07:06:20;25.00;99.90
38209;DHT22;24016;52.102;11.584;2022-08-03T07:08:46;25.10;99.90
38209;DHT22;24016;52.102;11.584;2022-08-03T07:11:11;25.30;99.90
38209;DHT22;24016;52.102;11.584;2022-08-03T07:13:37;25.40;99.80
38209;DHT22;24016;52.102;11.584;2022-08-03T07:16:05;25.60;99.00
38209;DHT22;24016;52.102;11.584;2022-08-03T07:18:30;25.60;99.10
38209;DHT22;24016;52.102;11.584;2022-08-03T07:20:57;25.60;99.90
38209;DHT22;24016;52.102;11.584;2022-08-03T07:23:22;25.70;98.90
38209;DHT22;24016;52.102;11.584;2022-08-03T07:25:48;25.70;98.50
38209;DHT22;24016;52.102;11.584;2022-08-03T07:28:13;25.80;97.80
38209;DHT22;24016;52.102;11.584;2022-08-03T07:30:39;26.00;97.90
38209;DHT22;24016;52.102;11.584;2022-08-03T07:33:05;26.20;97.40
38209;DHT22;24016;52.102;11.584;2022-08-03T07:35:30;26.20;96.70
38209;DHT22;24016;52.102;11.584;2022-08-03T07:37:56;26.40;97.30
38209;DHT22;24016;52.102;11.584;2022-08-03T07:40:21;26.40;96.60
38209;DHT22;24016;52.102;11.584;2022-08-03T07:42:47;26.60;97.30
38209;DHT22;24016;52.102;11.584;2022-08-03T07:45:12;26.80;95.90
38209;DHT22;24016;52.102;11.584;2022-08-03T07:47:38;27.00;95.60
38209;DHT22;24016;52.102;11.584;2022-08-03T07:50:05;27.40;95.60
38209;DHT22;24016;52.102;11.584;2022-08-03T07:52:30;27.70;95.60
38209;DHT22;24016;52.102;11.584;2022-08-03T07:55:19;27.90;95.50
38209;DHT22;24016;52.102;11.584;2022-08-03T07:57:45;28.30;94.60
38209;DHT22;24016;52.102;11.584;2022-08-03T08:00:16;28.50;93.80
38209;DHT22;24016;52.102;11.584;2022-08-03T08:02:43;29.00;93.40
38209;DHT22;24016;52.102;11.584;2022-08-03T08:05:09;28.90;92.80
38209;DHT22;24016;52.102;11.584;2022-08-03T08:07:36;29.40;93.80
38209;DHT22;24016;52.102;11.584;2022-08-03T08:10:04;30.20;91.80
38209;DHT22;24016;52.102;11.584;2022-08-03T08:12:30;30.50;92.00
38209;DHT22;24016;52.102;11.584;2022-08-03T08:14:55;31.00;91.50
38209;DHT22;24016;52.102;11.584;2022-08-03T08:17:21;31.50;90.40
38209;DHT22;24016;52.102;11.584;2022-08-03T08:19:46;31.80;90.00
38209;DHT22;24016;52.102;11.584;2022-08-03T08:22:12;32.30;89.30
38209;DHT22;24016;52.102;11.584;2022-08-03T08:24:38;33.00;87.50
38209;DHT22;24016;52.102;11.584;2022-08-03T08:27:04;33.40;86.70
38209;DHT22;24016;52.102;11.584;2022-08-03T08:29:29;33.30;85.90
38209;DHT22;24016;52.102;11.584;2022-08-03T08:31:55;33.00;85.30
38209;DHT22;24016;52.102;11.584;2022-08-03T08:34:20;33.20;85.00
38209;DHT22;24016;52.102;11.584;2022-08-03T08:36:46;33.10;85.00
38209;DHT22;24016;52.102;11.584;2022-08-03T08:39:11;33.00;84.70
38209;DHT22;24016;52.102;11.584;2022-08-03T08:41:37;33.50;84.60
38209;DHT22;24016;52.102;11.584;2022-08-03T08:44:03;33.80;83.70
38209;DHT22;24016;52.102;11.584;2022-08-03T08:46:32;34.00;83.10
38209;DHT22;24016;52.102;11.584;2022-08-03T08:48:59;34.50;82.10
38209;DHT22;24016;52.102;11.584;2022-08-03T08:51:29;34.30;82.40
38209;DHT22;24016;52.102;11.584;2022-08-03T08:53:56;34.10;82.90
38209;DHT22;24016;52.102;11.584;2022-08-03T08:56:25;34.50;83.30
38209;DHT22;24016;52.102;11.584;2022-08-03T08:58:57;33.50;81.70
38209;DHT22;24016;52.102;11.584;2022-08-03T09:01:23;34.10;82.10
38209;DHT22;24016;52.102;11.584;2022-08-03T09:03:49;34.70;81.60
38209;DHT22;24016;52.102;11.584;2022-08-03T09:06:15;34.60;80.20
38209;DHT22;24016;52.102;11.584;2022-08-03T09:08:41;34.30;81.30
38209;DHT22;24016;52.102;11.584;2022-08-03T09:11:07;33.30;81.20
38209;DHT22;24016;52.102;11.584;2022-08-03T09:13:33;32.30;81.70
38209;DHT22;24016;52.102;11.584;2022-08-03T09:16:12;32.30;82.90
38209;DHT22;24016;52.102;11.584;2022-08-03T09:18:37;32.40;82.70
38209;DHT22;24016;52.102;11.584;2022-08-03T09:23:47;34.00;82.80
38209;DHT22;24016;52.102;11.584;2022-08-03T09:26:19;35.10;80.50
38209;DHT22;24016;52.102;11.584;2022-08-03T09:28:45;35.50;78.90
38209;DHT22;24016;52.102;11.584;2022-08-03T09:31:11;34.90;78.40
38209;DHT22;24016;52.102;11.584;2022-08-03T09:33:46;33.80;79.30
38209;DHT22;24016;52.102;11.584;2022-08-03T09:36:45;33.70;81.60
38209;DHT22;24016;52.102;11.584;2022-08-03T09:39:13;34.80;79.70
38209;DHT22;24016;52.102;11.584;2022-08-03T09:41:41;34.30;79.30
38209;DHT22;24016;52.102;11.584;2022-08-03T09:44:07;35.10;79.30
38209;DHT22;24016;52.102;11.584;2022-08-03T09:46:50;36.10;80.20
38209;DHT22;24016;52.102;11.584;2022-08-03T09:49:16;35.70;77.20
38209;DHT22;24016;52.102;11.584;2022-08-03T09:51:42;35.30;76.90
38209;DHT22;24016;52.102;11.584;2022-08-03T09:54:08;35.00;78.00
38209;DHT22;24016;52.102;11.584;2022-08-03T09:56:44;35.80;77.60
38209;DHT22;24016;52.102;11.584;2022-08-03T09:59:12;35.20;77.40
38209;DHT22;24016;52.102;11.584;2022-08-03T10:01:38;35.00;77.40
38209;DHT22;24016;52.102;11.584;2022-08-03T10:04:13;35.40;78.40
38209;DHT22;24016;52.102;11.584;2022-08-03T10:06:43;35.70;78.80
38209;DHT22;24016;52.102;11.584;2022-08-03T10:09:11;36.00;78.20
38209;DHT22;24016;52.102;11.584;2022-08-03T10:11:37;35.60;77.30
38209;DHT22;24016;52.102;11.584;2022-08-03T10:14:05;36.10;76.80
38209;DHT22;24016;52.102;11.584;2022-08-03T10:16:34;36.40;76.60
38209;DHT22;24016;52.102;11.584;2022-08-03T10:19:00;36.00;76.80
38209;DHT22;24016;52.102;11.584;2022-08-03T10:21:27;35.30;76.50
38209;DHT22;24016;52.102;11.584;2022-08-03T10:23:55;35.20;77.30
38209;DHT22;24016;52.102;11.584;2022-08-03T10:26:23;34.50;78.80
38209;DHT22;24016;52.102;11.584;2022-08-03T10:28:52;35.10;78.40
38209;DHT22;24016;52.102;11.584;2022-08-03T10:31:19;35.70;76.80
38209;DHT22;24016;52.102;11.584;2022-08-03T10:33:49;35.40;75.70
38209;DHT22;24016;52.102;11.584;2022-08-03T10:36:15;35.60;76.60
38209;DHT22;24016;52.102;11.584;2022-08-03T10:38:47;36.50;76.30
38209;DHT22;24016;52.102;11.584;2022-08-03T10:41:19;37.30;75.90
38209;DHT22;24016;52.102;11.584;2022-08-03T10:43:52;38.20;74.80
38209;DHT22;24016;52.102;11.584;2022-08-03T10:46:20;37.70;74.10
38209;DHT22;24016;52.102;11.584;2022-08-03T10:48:47;36.80;75.30
38209;DHT22;24016;52.102;11.584;2022-08-03T10:51:14;36.70;75.20
38209;DHT22;24016;52.102;11.584;2022-08-03T10:53:41;37.10;76.30
38209;DHT22;24016;52.102;11.584;2022-08-03T11:02:11;37.70;74.20
38209;DHT22;24016;52.102;11.584;2022-08-03T11:04:38;38.70;72.70
38209;DHT22;24016;52.102;11.584;2022-08-03T11:07:22;39.40;72.80
38209;DHT22;24016;52.102;11.584;2022-08-03T11:09:50;39.60;72.50
38209;DHT22;24016;52.102;11.584;2022-08-03T11:12:27;39.80;72.00
38209;DHT22;24016;52.102;11.584;2022-08-03T11:14:54;40.20;71.40
38209;DHT22;24016;52.102;11.584;2022-08-03T11:17:21;39.80;69.60
38209;DHT22;24016;52.102;11.584;2022-08-03T11:19:51;38.60;70.60
38209;DHT22;24016;52.102;11.584;2022-08-03T11:22:18;38.70;70.50
38209;DHT22;24016;52.102;11.584;2022-08-03T11:27:20;38.20;70.70
38209;DHT22;24016;52.102;11.584;2022-08-03T11:30:08;38.30;72.80
38209;DHT22;24016;52.102;11.584;2022-08-03T11:35:10;38.40;72.70
38209;DHT22;24016;52.102;11.584;2022-08-03T11:38:00;38.80;71.30
38209;DHT22;24016;52.102;11.584;2022-08-03T11:40:47;39.10;70.40
38209;DHT22;24016;52.102;11.584;2022-08-03T11:46:05;38.90;70.10
38209;DHT22;24016;52.102;11.584;2022-08-03T11:48:36;39.00;69.60
38209;DHT22;24016;52.102;11.584;2022-08-03T11:51:04;38.40;69.00
38209;DHT22;24016;52.102;11.584;2022-08-03T11:53:30;37.60;71.30
38209;DHT22;24016;52.102;11.584;2022-08-03T11:55:58;38.40;72.10
38209;DHT22;24016;52.102;11.584;2022-08-03T11:58:24;39.50;69.60
38209;DHT22;24016;52.102;11.584;2022-08-03T12:00:50;40.20;68.70
38209;DHT22;24016;52.102;11.584;2022-08-03T12:03:19;41.00;68.00
38209;DHT22;24016;52.102;11.584;2022-08-03T12:05:48;40.40;68.60
38209;DHT22;24016;52.102;11.584;2022-08-03T12:08:17;40.20;68.60
38209;DHT22;24016;52.102;11.584;2022-08-03T12:10:49;40.60;68.70
38209;DHT22;24016;52.102;11.584;2022-08-03T12:13:16;39.80;69.00
38209;DHT22;24016;52.102;11.584;2022-08-03T12:15:42;39.90;68.80
38209;DHT22;24016;52.102;11.584;2022-08-03T12:18:17;40.30;68.60
38209;DHT22;24016;52.102;11.584;2022-08-03T12:20:45;39.10;67.00
38209;DHT22;24016;52.102;11.584;2022-08-03T12:23:11;38.10;69.10
38209;DHT22;24016;52.102;11.584;2022-08-03T12:25:38;36.90;69.70
38209;DHT22;24016;52.102;11.584;2022-08-03T12:28:17;36.80;69.90
38209;DHT22;24016;52.102;11.584;2022-08-03T12:30:46;36.20;69.90
38209;DHT22;24016;52.102;11.584;2022-08-03T12:33:14;37.40;71.30
38209;DHT22;24016;52.102;11.584;2022-08-03T12:35:39;38.40;70.60
38209;DHT22;24016;52.102;11.584;2022-08-03T12:38:05;39.70;68.40
38209;DHT22;24016;52.102;11.584;2022-08-03T12:40:31;40.40;67.40
38209;DHT22;24016;52.102;11.584;2022-08-03T12:42:56;40.50;68.10
38209;DHT22;24016;52.102;11.584;2022-08-03T12:45:24;39.40;68.20
38209;DHT22;24016;52.102;11.584;2022-08-03T12:47:55;39.60;67.70
38209;DHT22;24016;52.102;11.584;2022-08-03T12:50:25;38.40;67.90
38209;DHT22;24016;52.102;11.584;2022-08-03T12:52:51;38.50;67.90
38209;DHT22;24016;52.102;11.584;2022-08-03T12:55:21;39.20;67.70
38209;DHT22;24016;52.102;11.584;2022-08-03T12:57:47;38.20;68.40
38209;DHT22;24016;52.102;11.584;2022-08-03T13:00:14;38.30;67.90
38209;DHT22;24016;52.102;11.584;2022-08-03T13:02:40;39.10;67.50
38209;DHT22;24016;52.102;11.584;2022-08-03T13:05:13;39.80;66.40
38209;DHT22;24016;52.102;11.584;2022-08-03T13:07:40;40.70;66.60
38209;DHT22;24016;52.102;11.584;2022-08-03T13:10:06;39.20;65.40
38209;DHT22;24016;52.102;11.584;2022-08-03T13:12:32;40.30;67.20
38209;DHT22;24016;52.102;11.584;2022-08-03T13:14:59;41.00;64.90
38209;DHT22;24016;52.102;11.584;2022-08-03T13:17:25;38.90;65.40
38209;DHT22;24016;52.102;11.584;2022-08-03T13:19:51;38.30;66.30
38209;DHT22;24016;52.102;11.584;2022-08-03T13:22:23;37.70;66.70
38209;DHT22;24016;52.102;11.584;2022-08-03T13:24:51;38.50;66.50
38209;DHT22;24016;52.102;11.584;2022-08-03T13:27:17;38.20;66.40
38209;DHT22;24016;52.102;11.584;2022-08-03T13:29:43;38.70;66.20
38209;DHT22;24016;52.102;11.584;2022-08-03T13:32:09;39.00;66.70
38209;DHT22;24016;52.102;11.584;2022-08-03T13:34:35;39.10;66.20
38209;DHT22;24016;52.102;11.584;2022-08-03T13:37:01;39.90;65.70
38209;DHT22;24016;52.102;11.584;2022-08-03T13:39:26;39.50;65.00
38209;DHT22;24016;52.102;11.584;2022-08-03T13:41:52;39.60;66.30
38209;DHT22;24016;52.102;11.584;2022-08-03T13:44:18;39.80;66.30
38209;DHT22;24016;52.102;11.584;2022-08-03T13:46:44;38.80;66.30
38209;DHT22;24016;52.102;11.584;2022-08-03T13:49:10;38.70;66.00
38209;DHT22;24016;52.102;11.584;2022-08-03T13:51:35;38.50;66.30
38209;DHT22;24016;52.102;11.584;2022-08-03T13:54:01;37.40;66.40
38209;DHT22;24016;52.102;11.584;2022-08-03T13:56:27;37.30;67.60
38209;DHT22;24016;52.102;11.584;2022-08-03T13:58:53;36.50;67.60
38209;DHT22;24016;52.102;11.584;2022-08-03T14:01:19;35.70;68.20
38209;DHT22;24016;52.102;11.584;2022-08-03T14:03:45;34.90;68.60
38209;DHT22;24016;52.102;11.584;2022-08-03T14:06:17;34.70;69.70
38209;DHT22;24016;52.102;11.584;2022-08-03T14:08:42;34.60;69.80
38209;DHT22;24016;52.102;11.584;2022-08-03T14:11:09;34.60;69.50
38209;DHT22;24016;52.102;11.584;2022-08-03T14:13:34;34.40;69.50
38209;DHT22;24016;52.102;11.584;2022-08-03T14:16:00;34.70;69.70
38209;DHT22;24016;52.102;11.584;2022-08-03T14:18:25;34.80;69.30
38209;DHT22;24016;52.102;11.584;2022-08-03T14:20:51;35.40;69.10
38209;DHT22;24016;52.102;11.584;2022-08-03T14:23:17;35.30;69.10
38209;DHT22;24016;52.102;11.584;2022-08-03T14:25:42;34.70;69.10
38209;DHT22;24016;52.102;11.584;2022-08-03T14:28:08;34.40;69.80
38209;DHT22;24016;52.102;11.584;2022-08-03T14:30:34;34.50;70.60
38209;DHT22;24016;52.102;11.584;2022-08-03T14:33:00;34.80;70.10
38209;DHT22;24016;52.102;11.584;2022-08-03T14:35:25;35.30;69.80
38209;DHT22;24016;52.102;11.584;2022-08-03T14:37:51;35.50;69.30
38209;DHT22;24016;52.102;11.584;2022-08-03T14:40:18;35.70;68.30
38209;DHT22;24016;52.102;11.584;2022-08-03T14:42:43;35.60;68.50
38209;DHT22;24016;52.102;11.584;2022-08-03T14:45:09;34.80;69.80
38209;DHT22;24016;52.102;11.584;2022-08-03T14:47:35;35.00;68.70
38209;DHT22;24016;52.102;11.584;2022-08-03T14:50:00;35.20;68.60
38209;DHT22;24016;52.102;11.584;2022-08-03T14:52:29;35.00;68.40
38209;DHT22;24016;52.102;11.584;2022-08-03T14:54:55;34.50;68.50
38209;DHT22;24016;52.102;11.584;2022-08-03T14:57:21;34.60;69.00
38209;DHT22;24016;52.102;11.584;2022-08-03T14:59:46;34.70;69.50
38209;DHT22;24016;52.102;11.584;2022-08-03T15:02:12;34.90;69.10
38209;DHT22;24016;52.102;11.584;2022-08-03T15:04:37;34.70;70.10
38209;DHT22;24016;52.102;11.584;2022-08-03T15:07:03;34.60;69.40
38209;DHT22;24016;52.102;11.584;2022-08-03T15:09:28;34.70;69.40
38209;DHT22;24016;52.102;11.584;2022-08-03T15:11:54;34.90;68.80
38209;DHT22;24016;52.102;11.584;2022-08-03T15:14:20;34.50;68.60
38209;DHT22;24016;52.102;11.584;2022-08-03T15:16:45;33.90;68.80
38209;DHT22;24016;52.102;11.584;2022-08-03T15:19:11;33.60;69.80
38209;DHT22;24016;52.102;11.584;2022-08-03T15:21:36;33.70;70.80
38209;DHT22;24016;52.102;11.584;2022-08-03T15:24:02;33.60;70.20
38209;DHT22;24016;52.102;11.584;2022-08-03T15:26:27;33.50;70.30
38209;DHT22;24016;52.102;11.584;2022-08-03T15:28:53;33.50;70.00
38209;DHT22;24016;52.102;11.584;2022-08-03T15:31:22;33.50;70.00
38209;DHT22;24016;52.102;11.584;2022-08-03T15:33:48;33.50;70.40
38209;DHT22;24016;52.102;11.584;2022-08-03T15:36:16;33.60;70.80
38209;DHT22;24016;52.102;11.584;2022-08-03T15:38:42;33.50;70.20
38209;DHT22;24016;52.102;11.584;2022-08-03T15:41:07;33.20;70.30
38209;DHT22;24016;52.102;11.584;2022-08-03T15:43:33;32.90;70.70
38209;DHT22;24016;52.102;11.584;2022-08-03T15:45:58;32.90;70.50